Marble Falls' Hourly Summary for Monday, May 14, 2018
Hour Temp
(f)
RH
(%)
Solar Rad.
(MJ/m2)
Rainfall
(in)
Wind
(mph)
5/14/2018 12:00 AM 80 68 0 0 9.71
5/14/2018 1:00 AM 78 72 0 0 8.62
5/14/2018 2:00 AM 76 78 0 0 4.72
5/14/2018 3:00 AM 74 81 0 0 3.88
5/14/2018 4:00 AM 74 81 0 0 3.09
5/14/2018 5:00 AM 74 81 0 0 2.67
5/14/2018 6:00 AM 74 79 0 0 2.11
5/14/2018 7:00 AM 74 80 0.05 0 2.11
5/14/2018 8:00 AM 75 80 0.39 0 4.46
5/14/2018 9:00 AM 77 79 0.87 0 6.26
5/14/2018 10:00 AM 78 74 0.87 0 6.26
5/14/2018 11:00 AM 81 68 1.9 0 5.89
5/14/2018 12:00 PM 83 57 1.92 0 6.34
5/14/2018 1:00 PM 85 54 2.69 0 6.39
5/14/2018 2:00 PM 87 48 2.69 0 6.82
5/14/2018 3:00 PM 88 46 2.75 0 6.82
5/14/2018 4:00 PM 88 45 2.75 0 6.81
5/14/2018 5:00 PM 89 43 1.73 0 7.31
5/14/2018 6:00 PM 89 43 1.73 0 7.31
5/14/2018 7:00 PM 88 43 1.17 0 7.5
5/14/2018 8:00 PM 86 47 0.36 0 7.5
5/14/2018 9:00 PM 83 53 0.02 0 3.15
5/14/2018 10:00 PM 81 58 0 0 1.94
5/14/2018 11:00 PM 81 59 0 0 1.94
Data Summary 80 63 21.89 0.00 5.40